Time;durP1;ratioP1;P1;durP2;ratioP2;P2;SDS_P1;SDS_P2;PMS_P1;PMS_P2;Temp;Humidity;BMP_temperature;BMP_pressure;BME280_temperature;BME280_humidity;BME280_pressure;Samples;Min_cycle;Max_cycle;Signal;HPM_P1;HPM_P2
2021/01/04 00:00:31;;;;;;;3.50;3.20;;;;;;;;;;5069660;28;20480;-64
2021/01/04 00:03:25;;;;;;;3.90;3.50;;;;;;;;;;5046631;28;21016;-64
2021/01/04 00:06:05;;;;;;;3.97;3.57;;;;;;;;;;5047454;28;20411;-64
2021/01/04 00:08:50;;;;;;;3.70;3.30;;;;;;;;;;5056628;28;20415;-64
2021/01/04 00:11:16;;;;;;;4.13;3.73;;;;;;;;;;5063435;28;20407;-65
2021/01/04 00:14:01;;;;;;;5.10;4.00;;;;;;;;;;5036586;28;20415;-64
2021/01/04 00:16:30;;;;;;;3.93;3.63;;;;;;;;;;5051496;28;20176;-63
2021/01/04 00:19:09;;;;;;;4.13;3.70;;;;;;;;;;5056821;28;20890;-64
2021/01/04 00:22:00;;;;;;;4.40;4.00;;;;;;;;;;5066862;28;20897;-64
2021/01/04 00:24:39;;;;;;;4.53;4.03;;;;;;;;;;5069431;28;20418;-63
2021/01/04 00:27:13;;;;;;;3.70;3.40;;;;;;;;;;5058287;28;20419;-64
2021/01/04 00:29:39;;;;;;;4.00;3.60;;;;;;;;;;5047491;28;20884;-63
2021/01/04 00:32:12;;;;;;;3.93;3.53;;;;;;;;;;5058559;28;20403;-64
2021/01/04 00:34:47;;;;;;;4.20;3.80;;;;;;;;;;5071397;28;20391;-64
2021/01/04 00:37:34;;;;;;;4.00;3.60;;;;;;;;;;5058172;28;20415;-63
2021/01/04 00:40:03;;;;;;;3.80;3.47;;;;;;;;;;5043961;28;20497;-64
2021/01/04 00:42:39;;;;;;;4.20;3.80;;;;;;;;;;5070293;28;20422;-64
2021/01/04 00:45:09;;;;;;;4.80;4.40;;;;;;;;;;5077096;28;20925;-65
2021/01/04 00:47:44;;;;;;;3.77;3.47;;;;;;;;;;5052796;28;20948;-65
2021/01/04 00:50:39;;;;;;;4.17;3.77;;;;;;;;;;5056094;28;20538;-66
2021/01/04 00:53:15;;;;;;;4.17;3.77;;;;;;;;;;5032476;28;20719;-65
2021/01/04 00:55:51;;;;;;;4.30;3.90;;;;;;;;;;5039579;28;20419;-63
2021/01/04 00:58:35;;;;;;;4.67;4.17;;;;;;;;;;5065438;28;20430;-63
2021/01/04 01:01:22;;;;;;;4.63;4.23;;;;;;;;;;5061707;28;20419;-63
2021/01/04 01:03:59;;;;;;;4.23;3.83;;;;;;;;;;5049834;28;20982;-64
2021/01/04 01:06:36;;;;;;;3.90;3.60;;;;;;;;;;5068449;28;20418;-65
2021/01/04 01:09:03;;;;;;;4.67;4.27;;;;;;;;;;5059159;28;20489;-63
2021/01/04 01:11:29;;;;;;;4.77;4.37;;;;;;;;;;5046772;28;20476;-63
2021/01/04 01:14:06;;;;;;;4.90;4.30;;;;;;;;;;5068554;28;20434;-63
2021/01/04 01:16:50;;;;;;;5.30;4.73;;;;;;;;;;5051683;28;20494;-63
2021/01/04 01:19:31;;;;;;;4.97;4.40;;;;;;;;;;5050442;28;20426;-64
2021/01/04 01:21:57;;;;;;;4.60;4.20;;;;;;;;;;5049981;28;20434;-63
2021/01/04 01:24:24;;;;;;;4.80;4.40;;;;;;;;;;5065121;28;20418;-63
2021/01/04 01:27:02;;;;;;;5.53;5.03;;;;;;;;;;5055570;28;20184;-63
2021/01/04 01:29:50;;;;;;;5.07;4.67;;;;;;;;;;5060468;28;20482;-63
2021/01/04 01:32:16;;;;;;;5.53;4.57;;;;;;;;;;5051080;28;20411;-64
2021/01/04 01:34:42;;;;;;;4.93;4.53;;;;;;;;;;5039617;28;20421;-63
2021/01/04 01:37:08;;;;;;;5.10;4.57;;;;;;;;;;5058647;28;20230;-63
2021/01/04 01:39:37;;;;;;;5.27;4.77;;;;;;;;;;5058590;28;20427;-63
2021/01/04 01:42:19;;;;;;;5.93;5.33;;;;;;;;;;5045164;28;20671;-63
2021/01/04 01:44:48;;;;;;;5.90;5.30;;;;;;;;;;5056656;28;20426;-63
2021/01/04 01:47:25;;;;;;;5.20;4.73;;;;;;;;;;5036963;28;20414;-63
2021/01/04 01:50:03;;;;;;;5.87;5.37;;;;;;;;;;5064440;28;20868;-64
2021/01/04 01:52:47;;;;;;;5.90;5.30;;;;;;;;;;5047474;28;20429;-63
2021/01/04 01:55:19;;;;;;;5.23;4.73;;;;;;;;;;5049555;28;20430;-63
2021/01/04 01:57:48;;;;;;;6.17;5.57;;;;;;;;;;5039592;28;20418;-64
2021/01/04 02:00:18;;;;;;;6.87;5.57;;;;;;;;;;5044637;28;20423;-64
2021/01/04 02:02:47;;;;;;;5.43;4.93;;;;;;;;;;5052697;28;20467;-63
2021/01/04 02:05:19;;;;;;;6.07;5.47;;;;;;;;;;5039965;28;20424;-62
2021/01/04 02:07:48;;;;;;;5.87;5.37;;;;;;;;;;5060488;28;20419;-63
2021/01/04 02:10:16;;;;;;;6.40;5.80;;;;;;;;;;5055289;28;20562;-62
2021/01/04 02:13:01;;;;;;;5.57;5.07;;;;;;;;;;5065947;28;20459;-63
2021/01/04 02:15:42;;;;;;;6.23;5.63;;;;;;;;;;5034054;28;20791;-63
2021/01/04 02:18:08;;;;;;;5.73;5.20;;;;;;;;;;5067469;28;20411;-63
2021/01/04 02:20:42;;;;;;;6.10;5.50;;;;;;;;;;5048375;28;20421;-63
2021/01/04 02:23:29;;;;;;;6.10;5.50;;;;;;;;;;5058957;28;20472;-63
2021/01/04 02:25:57;;;;;;;5.53;5.03;;;;;;;;;;5050049;28;20442;-62
2021/01/04 02:28:26;;;;;;;5.50;5.00;;;;;;;;;;5066219;28;20772;-63
2021/01/04 02:30:52;;;;;;;6.27;5.67;;;;;;;;;;5056459;28;21055;-63
2021/01/04 02:33:19;;;;;;;6.97;6.27;;;;;;;;;;5041360;28;20410;-63
2021/01/04 02:35:46;;;;;;;6.73;6.03;;;;;;;;;;5070950;28;20422;-63
2021/01/04 02:38:14;;;;;;;6.53;5.90;;;;;;;;;;5066427;28;20428;-63
2021/01/04 02:40:40;;;;;;;6.87;6.17;;;;;;;;;;5068142;28;20250;-62
2021/01/04 02:43:06;;;;;;;6.63;6.00;;;;;;;;;;5068506;28;20450;-63
2021/01/04 02:45:33;;;;;;;7.03;5.90;;;;;;;;;;5057258;28;20699;-63
2021/01/04 02:48:19;;;;;;;6.90;5.83;;;;;;;;;;5062261;28;20185;-63
2021/01/04 02:50:56;;;;;;;6.50;5.90;;;;;;;;;;5044008;28;20571;-64
2021/01/04 02:53:35;;;;;;;7.00;6.30;;;;;;;;;;5067252;28;20429;-62
2021/01/04 02:56:13;;;;;;;6.43;5.60;;;;;;;;;;5069708;28;20457;-63
2021/01/04 02:59:00;;;;;;;6.57;5.97;;;;;;;;;;5072023;28;20776;-63
2021/01/04 03:01:36;;;;;;;7.40;6.70;;;;;;;;;;5054962;28;20772;-64
2021/01/04 03:04:02;;;;;;;6.90;6.17;;;;;;;;;;5028354;28;20935;-63
2021/01/04 03:06:39;;;;;;;6.40;5.80;;;;;;;;;;5012766;28;20420;-63
2021/01/04 03:09:10;;;;;;;6.20;5.63;;;;;;;;;;5013204;28;20495;-62
2021/01/04 03:11:38;;;;;;;6.73;6.10;;;;;;;;;;5013041;28;20768;-63
2021/01/04 03:14:09;;;;;;;6.37;5.77;;;;;;;;;;5018493;28;20453;-62
2021/01/04 03:16:58;;;;;;;7.13;6.43;;;;;;;;;;5029017;28;20420;-62
2021/01/04 03:19:28;;;;;;;6.47;5.70;;;;;;;;;;5019160;28;20417;-63
2021/01/04 03:21:58;;;;;;;6.67;6.07;;;;;;;;;;5017515;28;20833;-63
2021/01/04 03:24:24;;;;;;;6.67;5.97;;;;;;;;;;5027812;28;20416;-62
2021/01/04 03:26:53;;;;;;;6.73;6.07;;;;;;;;;;5030656;28;20432;-63
2021/01/04 03:29:19;;;;;;;6.83;6.20;;;;;;;;;;5031347;28;20881;-63
2021/01/04 03:31:45;;;;;;;6.70;6.10;;;;;;;;;;5020531;28;20479;-65
2021/01/04 03:34:11;;;;;;;7.00;6.30;;;;;;;;;;5010314;28;20183;-63
2021/01/04 03:36:37;;;;;;;6.43;5.83;;;;;;;;;;5027956;28;20196;-63
2021/01/04 03:39:04;;;;;;;6.93;6.23;;;;;;;;;;5025743;28;20420;-63
2021/01/04 03:41:30;;;;;;;6.53;5.93;;;;;;;;;;5030573;28;20429;-63
2021/01/04 03:43:56;;;;;;;6.63;6.00;;;;;;;;;;5023477;28;20428;-63
2021/01/04 03:46:22;;;;;;;6.73;6.03;;;;;;;;;;5014749;28;20185;-64
2021/01/04 03:48:48;;;;;;;5.93;5.37;;;;;;;;;;5028498;28;20449;-64
2021/01/04 03:51:15;;;;;;;6.73;6.13;;;;;;;;;;5016349;28;20515;-63
2021/01/04 03:53:41;;;;;;;7.20;6.03;;;;;;;;;;5020793;28;20291;-63
2021/01/04 03:56:08;;;;;;;6.43;5.83;;;;;;;;;;5030188;28;20437;-64
2021/01/04 03:58:34;;;;;;;6.83;6.20;;;;;;;;;;5027788;28;20480;-63
2021/01/04 04:01:00;;;;;;;7.53;6.10;;;;;;;;;;5015004;28;20417;-63
2021/01/04 04:03:26;;;;;;;6.73;6.07;;;;;;;;;;5061533;28;20220;-62
2021/01/04 04:05:52;;;;;;;7.03;6.33;;;;;;;;;;5053628;28;20174;-62
2021/01/04 04:08:18;;;;;;;7.10;6.40;;;;;;;;;;5051848;28;20700;-63
2021/01/04 04:10:44;;;;;;;6.90;6.00;;;;;;;;;;5062564;28;20205;-63
2021/01/04 04:13:10;;;;;;;6.97;6.30;;;;;;;;;;5053685;28;20572;-63
2021/01/04 04:15:36;;;;;;;6.93;6.27;;;;;;;;;;5070598;28;20224;-62
2021/01/04 04:18:02;;;;;;;6.67;6.07;;;;;;;;;;5039596;28;20454;-62
2021/01/04 04:20:28;;;;;;;7.40;6.63;;;;;;;;;;5054229;28;20264;-64
2021/01/04 04:22:55;;;;;;;7.23;6.53;;;;;;;;;;5056560;28;20501;-63
2021/01/04 04:25:22;;;;;;;7.73;6.77;;;;;;;;;;5069885;28;20183;-62
2021/01/04 04:27:50;;;;;;;7.13;6.43;;;;;;;;;;5059871;28;20902;-64
2021/01/04 04:30:17;;;;;;;6.93;6.23;;;;;;;;;;5063785;28;20471;-63
2021/01/04 04:32:43;;;;;;;6.87;6.17;;;;;;;;;;5063201;28;20487;-66
2021/01/04 04:35:11;;;;;;;7.20;6.50;;;;;;;;;;5057884;28;20411;-63
2021/01/04 04:37:40;;;;;;;6.70;6.03;;;;;;;;;;5059420;28;20423;-63
2021/01/04 04:40:06;;;;;;;6.57;5.87;;;;;;;;;;5060465;28;20776;-62
2021/01/04 04:42:32;;;;;;;7.27;6.57;;;;;;;;;;5035496;28;20428;-63
2021/01/04 04:45:01;;;;;;;7.27;6.57;;;;;;;;;;5064934;28;20462;-63
2021/01/04 04:47:30;;;;;;;7.67;6.97;;;;;;;;;;5070403;28;20434;-62
2021/01/04 04:50:04;;;;;;;7.53;6.80;;;;;;;;;;5071109;28;20458;-62
2021/01/04 04:52:30;;;;;;;7.27;6.57;;;;;;;;;;5050398;28;20448;-63
2021/01/04 04:55:04;;;;;;;7.20;6.50;;;;;;;;;;5052237;28;20416;-62
2021/01/04 04:57:44;;;;;;;7.57;6.47;;;;;;;;;;5071034;28;20194;-63
2021/01/04 05:00:11;;;;;;;7.67;6.97;;;;;;;;;;5052583;28;20411;-62
2021/01/04 05:02:43;;;;;;;7.33;6.63;;;;;;;;;;5065194;28;20462;-62
2021/01/04 05:05:30;;;;;;;7.27;6.53;;;;;;;;;;5067664;28;20458;-64
2021/01/04 05:08:06;;;;;;;7.13;6.37;;;;;;;;;;5033062;28;20423;-63
2021/01/04 05:10:35;;;;;;;7.37;6.43;;;;;;;;;;5062306;28;20447;-61
2021/01/04 05:13:04;;;;;;;7.53;6.83;;;;;;;;;;5052448;28;20507;-61
2021/01/04 05:15:33;;;;;;;7.70;7.00;;;;;;;;;;5056912;28;20426;-62
2021/01/04 05:18:18;;;;;;;7.43;6.60;;;;;;;;;;5067967;28;20422;-63
2021/01/04 05:21:03;;;;;;;8.03;7.00;;;;;;;;;;5053186;28;20412;-62
2021/01/04 05:23:41;;;;;;;7.00;6.40;;;;;;;;;;5068570;28;20809;-63
2021/01/04 05:26:35;;;;;;;7.77;6.97;;;;;;;;;;5065235;28;20940;-62
2021/01/04 05:29:00;;;;;;;7.47;6.67;;;;;;;;;;5043323;28;20422;-62
2021/01/04 05:31:45;;;;;;;6.97;6.27;;;;;;;;;;5065211;28;20789;-62
2021/01/04 05:34:34;;;;;;;8.87;6.97;;;;;;;;;;5054768;28;20918;-62
2021/01/04 05:37:00;;;;;;;7.03;6.40;;;;;;;;;;5052747;28;20419;-63
2021/01/04 05:39:43;;;;;;;6.57;5.97;;;;;;;;;;5057767;28;20426;-63
2021/01/04 05:42:31;;;;;;;7.07;6.37;;;;;;;;;;5057103;28;20237;-63
2021/01/04 05:45:01;;;;;;;7.97;7.23;;;;;;;;;;5063369;28;20466;-62
2021/01/04 05:47:33;;;;;;;7.33;6.63;;;;;;;;;;5051929;28;20422;-62
2021/01/04 05:50:06;;;;;;;7.60;6.90;;;;;;;;;;5071063;28;20450;-64
2021/01/04 05:52:33;;;;;;;7.97;7.23;;;;;;;;;;5055478;28;20420;-62
2021/01/04 05:54:59;;;;;;;7.53;6.83;;;;;;;;;;5057053;28;20420;-65
2021/01/04 05:57:25;;;;;;;7.87;6.43;;;;;;;;;;5060138;28;20476;-63
2021/01/04 05:59:55;;;;;;;7.03;6.43;;;;;;;;;;5065634;28;20419;-63
2021/01/04 06:02:23;;;;;;;7.63;6.93;;;;;;;;;;5057018;28;20459;-63
2021/01/04 06:04:49;;;;;;;7.47;6.63;;;;;;;;;;5061492;28;20422;-63
2021/01/04 06:07:16;;;;;;;8.00;7.20;;;;;;;;;;5068255;28;20468;-62
2021/01/04 06:09:42;;;;;;;7.40;6.70;;;;;;;;;;5067216;28;20462;-63
2021/01/04 06:12:18;;;;;;;7.00;6.40;;;;;;;;;;5053747;28;20423;-64
2021/01/04 06:14:44;;;;;;;7.33;6.53;;;;;;;;;;5041557;28;21182;-64
2021/01/04 06:17:28;;;;;;;7.47;6.77;;;;;;;;;;5053856;28;20864;-63
2021/01/04 06:19:55;;;;;;;7.57;6.87;;;;;;;;;;5039394;28;20425;-63
2021/01/04 06:22:27;;;;;;;7.83;7.03;;;;;;;;;;5042586;28;20434;-63
2021/01/04 06:24:58;;;;;;;7.37;6.67;;;;;;;;;;5068440;28;20418;-63
2021/01/04 06:27:32;;;;;;;7.20;6.53;;;;;;;;;;5058265;28;20521;-63
2021/01/04 06:30:01;;;;;;;7.03;6.40;;;;;;;;;;5031793;28;20631;-62
2021/01/04 06:32:29;;;;;;;8.03;7.23;;;;;;;;;;5049894;28;20904;-63
2021/01/04 06:34:57;;;;;;;7.43;6.70;;;;;;;;;;5054718;28;20767;-63
2021/01/04 06:37:26;;;;;;;7.17;6.53;;;;;;;;;;5043596;28;20443;-64
2021/01/04 06:40:05;;;;;;;7.17;6.53;;;;;;;;;;5050486;28;20407;-64
2021/01/04 06:42:36;;;;;;;7.50;6.83;;;;;;;;;;5059228;28;20422;-63
2021/01/04 06:45:08;;;;;;;7.27;6.57;;;;;;;;;;5050848;28;20426;-65
2021/01/04 06:47:40;;;;;;;7.63;6.87;;;;;;;;;;5042661;28;20442;-65
2021/01/04 06:50:10;;;;;;;7.03;6.33;;;;;;;;;;5051393;28;20459;-63
2021/01/04 06:52:55;;;;;;;7.47;6.77;;;;;;;;;;5032083;28;20428;-61
2021/01/04 06:55:40;;;;;;;7.87;7.07;;;;;;;;;;5029180;28;20404;-63
2021/01/04 06:58:15;;;;;;;7.70;6.93;;;;;;;;;;5037810;28;20419;-63
2021/01/04 07:00:53;;;;;;;7.73;7.00;;;;;;;;;;5047409;28;20421;-64
2021/01/04 07:03:24;;;;;;;7.70;6.87;;;;;;;;;;5051747;28;20471;-63
2021/01/04 07:06:09;;;;;;;8.30;7.43;;;;;;;;;;5029408;28;20780;-63
2021/01/04 07:08:53;;;;;;;8.47;7.20;;;;;;;;;;5049509;28;20423;-64
2021/01/04 07:11:34;;;;;;;7.90;7.10;;;;;;;;;;5059055;28;20438;-65
2021/01/04 07:14:10;;;;;;;7.17;6.47;;;;;;;;;;5067466;28;20429;-63
2021/01/04 07:16:36;;;;;;;7.77;6.97;;;;;;;;;;5035205;28;20422;-63
2021/01/04 07:19:02;;;;;;;8.57;7.60;;;;;;;;;;5052282;28;20407;-63
2021/01/04 07:21:43;;;;;;;8.90;6.70;;;;;;;;;;5055487;28;20279;-63
2021/01/04 07:24:18;;;;;;;7.13;6.43;;;;;;;;;;5066220;28;20901;-63
2021/01/04 07:27:02;;;;;;;7.73;7.03;;;;;;;;;;5070731;28;20415;-63
2021/01/04 07:29:28;;;;;;;6.83;6.20;;;;;;;;;;5066909;28;20499;-62
2021/01/04 07:31:59;;;;;;;8.07;7.27;;;;;;;;;;5053436;28;20419;-62
2021/01/04 07:34:33;;;;;;;6.93;6.23;;;;;;;;;;5060512;28;20177;-63
2021/01/04 07:37:25;;;;;;;7.30;6.60;;;;;;;;;;5063507;28;20433;-63
2021/01/04 07:40:23;;;;;;;7.20;6.50;;;;;;;;;;5062746;28;20415;-62
2021/01/04 07:42:52;;;;;;;7.63;6.93;;;;;;;;;;5071987;28;20387;-62
2021/01/04 07:45:22;;;;;;;7.50;6.73;;;;;;;;;;5059644;28;20887;-62
2021/01/04 07:48:07;;;;;;;7.30;6.60;;;;;;;;;;5065977;28;20454;-63
2021/01/04 07:50:52;;;;;;;7.97;7.17;;;;;;;;;;5073137;28;20603;-62
2021/01/04 07:53:38;;;;;;;7.63;6.83;;;;;;;;;;5057757;28;20487;-62
2021/01/04 07:56:14;;;;;;;7.50;6.77;;;;;;;;;;5047700;28;20454;-63
2021/01/04 07:58:49;;;;;;;8.07;7.27;;;;;;;;;;5046703;28;20414;-63
2021/01/04 08:01:15;;;;;;;7.70;6.90;;;;;;;;;;5060129;28;20465;-62
2021/01/04 08:03:57;;;;;;;7.63;6.93;;;;;;;;;;5046892;28;20454;-63
2021/01/04 08:06:26;;;;;;;6.80;6.13;;;;;;;;;;5041601;28;20442;-63
2021/01/04 08:08:59;;;;;;;8.00;7.20;;;;;;;;;;5058049;28;20420;-63
2021/01/04 08:11:37;;;;;;;7.70;6.90;;;;;;;;;;5051588;28;20412;-65
2021/01/04 08:14:22;;;;;;;7.63;6.90;;;;;;;;;;5065841;28;20435;-63
2021/01/04 08:16:54;;;;;;;7.70;6.90;;;;;;;;;;5065180;28;20531;-63
2021/01/04 08:19:20;;;;;;;7.50;6.80;;;;;;;;;;5062129;28;20937;-62
2021/01/04 08:22:05;;;;;;;8.07;7.27;;;;;;;;;;5050979;28;20427;-63
2021/01/04 08:24:50;;;;;;;6.73;6.13;;;;;;;;;;5088706;28;20426;-63
2021/01/04 08:27:21;;;;;;;6.90;6.20;;;;;;;;;;5046348;28;20428;-63
2021/01/04 08:30:05;;;;;;;7.57;6.87;;;;;;;;;;5053756;28;20549;-63
2021/01/04 08:32:40;;;;;;;7.47;6.77;;;;;;;;;;5061776;28;20433;-64
2021/01/04 08:35:11;;;;;;;7.63;6.93;;;;;;;;;;5053101;28;20508;-63
2021/01/04 08:37:39;;;;;;;8.57;7.57;;;;;;;;;;5042680;28;20451;-62
2021/01/04 08:40:18;;;;;;;8.00;7.20;;;;;;;;;;5052626;28;20432;-64
2021/01/04 08:42:45;;;;;;;8.10;6.77;;;;;;;;;;5049337;28;20518;-62
2021/01/04 08:45:13;;;;;;;8.10;7.30;;;;;;;;;;5050154;28;20432;-63
2021/01/04 08:47:42;;;;;;;8.43;7.60;;;;;;;;;;5060379;28;20453;-63
2021/01/04 08:50:14;;;;;;;8.57;7.70;;;;;;;;;;5062329;28;20466;-62
2021/01/04 08:52:54;;;;;;;8.13;7.30;;;;;;;;;;5052761;28;20419;-62
2021/01/04 08:55:28;;;;;;;7.57;6.83;;;;;;;;;;5032016;28;20797;-62
2021/01/04 08:57:54;;;;;;;7.60;6.70;;;;;;;;;;5050202;28;20515;-61
2021/01/04 09:00:25;;;;;;;8.40;7.47;;;;;;;;;;5045376;28;20518;-62
2021/01/04 09:02:54;;;;;;;8.27;7.47;;;;;;;;;;5049394;28;20459;-62
2021/01/04 09:05:34;;;;;;;7.17;6.47;;;;;;;;;;5051261;28;20454;-63
2021/01/04 09:08:01;;;;;;;8.13;7.33;;;;;;;;;;5049332;28;20427;-63
2021/01/04 09:10:33;;;;;;;8.63;7.83;;;;;;;;;;5050033;28;20816;-63
2021/01/04 09:13:18;;;;;;;8.97;7.00;;;;;;;;;;5066651;28;20897;-63
2021/01/04 09:15:44;;;;;;;8.37;7.57;;;;;;;;;;5031088;28;20923;-63
2021/01/04 09:18:30;;;;;;;8.73;7.07;;;;;;;;;;5067446;28;20853;-63
2021/01/04 09:21:01;;;;;;;9.43;7.53;;;;;;;;;;5054498;28;20414;-63
2021/01/04 09:23:30;;;;;;;9.03;8.13;;;;;;;;;;5054863;28;20506;-63
2021/01/04 09:25:56;;;;;;;9.10;8.20;;;;;;;;;;5054528;28;20428;-64
2021/01/04 09:28:23;;;;;;;7.90;7.10;;;;;;;;;;5061447;28;20800;-63
2021/01/04 09:30:50;;;;;;;8.53;7.63;;;;;;;;;;5058171;28;20212;-63
2021/01/04 09:33:18;;;;;;;7.27;6.57;;;;;;;;;;5051446;28;20926;-62
2021/01/04 09:35:44;;;;;;;9.30;7.37;;;;;;;;;;5062302;28;20418;-64
2021/01/04 09:38:24;;;;;;;8.77;7.87;;;;;;;;;;5031853;28;20531;-62
2021/01/04 09:40:52;;;;;;;8.07;7.27;;;;;;;;;;5057183;28;20427;-62
2021/01/04 09:43:21;;;;;;;8.57;7.40;;;;;;;;;;5049716;28;20518;-62
2021/01/04 09:45:47;;;;;;;8.27;7.40;;;;;;;;;;5052928;28;20421;-62
2021/01/04 09:48:23;;;;;;;8.33;7.43;;;;;;;;;;5050788;28;20435;-64
2021/01/04 09:51:03;;;;;;;8.03;7.10;;;;;;;;;;5062468;28;21002;-63
2021/01/04 09:53:36;;;;;;;7.70;6.97;;;;;;;;;;5050495;28;20758;-62
2021/01/04 09:56:03;;;;;;;9.80;8.20;;;;;;;;;;5058250;28;20667;-65
2021/01/04 09:58:29;;;;;;;9.20;8.20;;;;;;;;;;5066412;28;20504;-63
2021/01/04 10:01:04;;;;;;;8.83;7.23;;;;;;;;;;5038916;28;20432;-63
2021/01/04 10:03:30;;;;;;;7.83;7.10;;;;;;;;;;5059000;28;20478;-65
2021/01/04 10:05:57;;;;;;;9.60;8.10;;;;;;;;;;5057489;28;20441;-64
2021/01/04 10:08:28;;;;;;;8.77;7.87;;;;;;;;;;5068295;28;20410;-62
2021/01/04 10:11:02;;;;;;;9.10;8.20;;;;;;;;;;5059997;28;20463;-62
2021/01/04 10:13:29;;;;;;;9.40;8.17;;;;;;;;;;5054453;28;20429;-62
2021/01/04 10:15:56;;;;;;;8.07;7.27;;;;;;;;;;5055787;28;20411;-62
2021/01/04 10:18:42;;;;;;;9.33;8.43;;;;;;;;;;5049361;28;20654;-62
2021/01/04 10:21:12;;;;;;;9.10;7.73;;;;;;;;;;5034930;28;20938;-62
2021/01/04 10:23:42;;;;;;;10.43;8.43;;;;;;;;;;5052102;28;20431;-62
2021/01/04 10:26:09;;;;;;;8.03;7.23;;;;;;;;;;5051954;28;20463;-62
2021/01/04 10:28:37;;;;;;;8.80;7.90;;;;;;;;;;5054843;28;20492;-62
2021/01/04 10:31:05;;;;;;;9.27;8.37;;;;;;;;;;5049929;28;20995;-62
2021/01/04 10:33:34;;;;;;;8.33;7.47;;;;;;;;;;5070078;28;20760;-58
2021/01/04 10:36:17;;;;;;;8.93;7.77;;;;;;;;;;5064243;28;20615;-58
2021/01/04 10:38:48;;;;;;;8.67;7.77;;;;;;;;;;5035450;28;20431;-58
2021/01/04 10:41:16;;;;;;;9.13;8.23;;;;;;;;;;5066241;28;20824;-58
2021/01/04 10:43:42;;;;;;;8.93;7.97;;;;;;;;;;5051148;28;20435;-58
2021/01/04 10:46:41;;;;;;;8.47;7.33;;;;;;;;;;5044932;28;20453;-58
2021/01/04 10:49:09;;;;;;;8.10;7.30;;;;;;;;;;4987025;28;20453;-60
2021/01/04 10:51:37;;;;;;;8.00;7.20;;;;;;;;;;5063171;28;20853;-58
2021/01/04 10:54:17;;;;;;;9.13;7.37;;;;;;;;;;5054498;28;20427;-58
2021/01/04 10:57:06;;;;;;;8.73;7.20;;;;;;;;;;5060143;28;20788;-59
2021/01/04 10:59:38;;;;;;;7.90;7.07;;;;;;;;;;5044040;28;20872;-61
2021/01/04 11:02:04;;;;;;;7.00;6.27;;;;;;;;;;5038928;28;20467;-58
2021/01/04 11:04:31;;;;;;;15.33;7.40;;;;;;;;;;5058890;28;20427;-58
2021/01/04 11:07:08;;;;;;;7.03;6.30;;;;;;;;;;5066965;28;20438;-59
2021/01/04 11:09:40;;;;;;;7.93;6.70;;;;;;;;;;5037651;28;20533;-57
2021/01/04 11:12:14;;;;;;;7.43;6.73;;;;;;;;;;5055193;28;20434;-60
2021/01/04 11:14:52;;;;;;;6.80;5.73;;;;;;;;;;5057999;28;20769;-58
2021/01/04 11:17:22;;;;;;;12.70;6.67;;;;;;;;;;5059663;28;20481;-58
2021/01/04 11:19:49;;;;;;;9.80;6.80;;;;;;;;;;5053142;28;20424;-57
2021/01/04 11:22:15;;;;;;;8.37;7.43;;;;;;;;;;5052884;28;20544;-57
2021/01/04 11:24:41;;;;;;;8.80;7.10;;;;;;;;;;5045722;28;20812;-59
2021/01/04 11:27:07;;;;;;;11.37;7.37;;;;;;;;;;5052891;28;20197;-57
2021/01/04 11:29:34;;;;;;;20.60;8.33;;;;;;;;;;5051842;28;20734;-55
2021/01/04 11:32:00;;;;;;;104.30;18.67;;;;;;;;;;5056339;28;20608;-54
2021/01/04 11:34:26;;;;;;;8.07;6.97;;;;;;;;;;5038207;28;20514;-54
2021/01/04 11:36:52;;;;;;;10.10;7.60;;;;;;;;;;5059782;28;20507;-54
2021/01/04 11:39:19;;;;;;;15.33;8.43;;;;;;;;;;5046407;28;20517;-55
2021/01/04 11:41:45;;;;;;;15.87;8.60;;;;;;;;;;5053501;28;20234;-54
2021/01/04 11:44:12;;;;;;;11.90;7.70;;;;;;;;;;5060982;28;20457;-55
2021/01/04 11:46:38;;;;;;;10.07;7.20;;;;;;;;;;5061541;28;20430;-56
2021/01/04 11:49:04;;;;;;;9.03;7.57;;;;;;;;;;5060981;28;20439;-55
2021/01/04 11:51:31;;;;;;;9.10;7.43;;;;;;;;;;5060542;28;20452;-54
2021/01/04 11:53:57;;;;;;;8.47;7.57;;;;;;;;;;5060483;28;20427;-55
2021/01/04 11:56:24;;;;;;;9.23;7.67;;;;;;;;;;5055498;28;20441;-56
2021/01/04 11:58:50;;;;;;;9.23;8.07;;;;;;;;;;5051914;28;20439;-58
2021/01/04 12:01:16;;;;;;;9.57;8.47;;;;;;;;;;5060658;28;20433;-57
2021/01/04 12:03:43;;;;;;;9.27;7.90;;;;;;;;;;5058285;28;20499;-57
2021/01/04 12:06:09;;;;;;;8.87;7.97;;;;;;;;;;5055398;28;20490;-57
2021/01/04 12:08:35;;;;;;;9.97;8.83;;;;;;;;;;5063960;28;20428;-57
2021/01/04 12:11:02;;;;;;;9.83;8.83;;;;;;;;;;5037771;28;20546;-57
2021/01/04 12:13:28;;;;;;;11.73;8.37;;;;;;;;;;5055212;28;20473;-58
2021/01/04 12:15:54;;;;;;;9.73;8.50;;;;;;;;;;5065543;28;20430;-57
2021/01/04 12:18:20;;;;;;;10.77;8.57;;;;;;;;;;5052180;28;20407;-57
2021/01/04 12:20:47;;;;;;;10.87;9.67;;;;;;;;;;5058808;28;20454;-58
2021/01/04 12:23:13;;;;;;;11.63;10.10;;;;;;;;;;5063783;28;20937;-57
2021/01/04 12:25:39;;;;;;;12.13;10.10;;;;;;;;;;5037060;28;20922;-57
2021/01/04 12:28:05;;;;;;;12.63;9.70;;;;;;;;;;5066581;28;20929;-57
2021/01/04 12:30:32;;;;;;;12.77;10.30;;;;;;;;;;5057037;28;20854;-57
2021/01/04 12:32:59;;;;;;;11.90;9.80;;;;;;;;;;5051469;28;20438;-58
2021/01/04 12:35:25;;;;;;;11.40;10.17;;;;;;;;;;5053485;28;20423;-58
2021/01/04 12:37:51;;;;;;;11.17;9.77;;;;;;;;;;5057214;28;20419;-58
2021/01/04 12:40:20;;;;;;;12.37;9.47;;;;;;;;;;5064923;28;20422;-57
2021/01/04 12:42:46;;;;;;;11.30;9.23;;;;;;;;;;5059116;28;20427;-58
2021/01/04 12:45:13;;;;;;;12.10;9.40;;;;;;;;;;5040434;28;20538;-57
2021/01/04 12:47:39;;;;;;;11.47;10.23;;;;;;;;;;5065312;28;20862;-57
2021/01/04 12:50:05;;;;;;;11.07;9.73;;;;;;;;;;5048207;28;20549;-58
2021/01/04 12:52:31;;;;;;;11.53;9.33;;;;;;;;;;5050006;28;20208;-57
2021/01/04 12:54:57;;;;;;;10.93;9.77;;;;;;;;;;5069180;28;20850;-57
2021/01/04 12:57:24;;;;;;;12.27;10.13;;;;;;;;;;5045743;28;20463;-59
2021/01/04 12:59:50;;;;;;;10.90;9.77;;;;;;;;;;5049901;28;20549;-58
2021/01/04 13:02:18;;;;;;;11.43;9.77;;;;;;;;;;5060780;28;20517;-57
2021/01/04 13:04:44;;;;;;;11.07;9.47;;;;;;;;;;5053362;28;21068;-58
2021/01/04 13:07:11;;;;;;;11.53;9.97;;;;;;;;;;5054361;28;21020;-59
2021/01/04 13:09:37;;;;;;;11.67;8.43;;;;;;;;;;5063609;28;20465;-58
2021/01/04 13:12:05;;;;;;;10.57;9.47;;;;;;;;;;5056959;28;20438;-57
2021/01/04 13:14:31;;;;;;;11.73;10.53;;;;;;;;;;5035838;28;20432;-57
2021/01/04 13:16:57;;;;;;;9.70;8.70;;;;;;;;;;5058091;28;20859;-57
2021/01/04 13:19:28;;;;;;;11.33;8.93;;;;;;;;;;5065599;28;20418;-58
2021/01/04 13:21:54;;;;;;;10.30;9.20;;;;;;;;;;5064917;28;20966;-58
2021/01/04 13:24:21;;;;;;;9.80;8.43;;;;;;;;;;5050628;28;20420;-57
2021/01/04 13:26:48;;;;;;;12.43;10.57;;;;;;;;;;5055140;28;20444;-57
2021/01/04 13:29:16;;;;;;;11.53;8.63;;;;;;;;;;5061003;28;20917;-57
2021/01/04 13:31:42;;;;;;;10.13;8.90;;;;;;;;;;5064011;28;20440;-57
2021/01/04 13:34:08;;;;;;;10.10;9.10;;;;;;;;;;5052495;28;20447;-58
2021/01/04 13:36:35;;;;;;;11.13;9.20;;;;;;;;;;5054149;28;20422;-57
2021/01/04 13:39:01;;;;;;;9.70;8.40;;;;;;;;;;5063487;28;20465;-57
2021/01/04 13:41:27;;;;;;;33.00;9.40;;;;;;;;;;5057408;28;20458;-58
2021/01/04 13:43:53;;;;;;;9.20;7.83;;;;;;;;;;5058503;28;20837;-59
2021/01/04 13:46:20;;;;;;;10.30;8.03;;;;;;;;;;5049063;28;20447;-62
2021/01/04 13:48:46;;;;;;;8.80;7.67;;;;;;;;;;5039113;28;20561;-60
2021/01/04 13:51:12;;;;;;;8.93;7.37;;;;;;;;;;5036116;28;20928;-58
2021/01/04 13:53:38;;;;;;;9.60;8.60;;;;;;;;;;5056776;28;20192;-59
2021/01/04 13:56:06;;;;;;;9.47;8.27;;;;;;;;;;5050710;28;20407;-59
2021/01/04 13:58:32;;;;;;;9.07;7.63;;;;;;;;;;5053284;28;20677;-60
2021/01/04 14:00:58;;;;;;;11.97;8.37;;;;;;;;;;5065680;28;20438;-59
2021/01/04 14:03:24;;;;;;;13.97;8.83;;;;;;;;;;5053217;28;20291;-61
2021/01/04 14:05:50;;;;;;;20.10;8.67;;;;;;;;;;5035004;28;20176;-60
2021/01/04 14:08:19;;;;;;;8.87;7.53;;;;;;;;;;5052581;28;20188;-59
2021/01/04 14:10:45;;;;;;;13.53;7.43;;;;;;;;;;5049964;28;20946;-59
2021/01/04 14:13:11;;;;;;;14.60;8.30;;;;;;;;;;5050245;28;20412;-59
2021/01/04 14:15:37;;;;;;;11.10;7.63;;;;;;;;;;5042989;28;20425;-60
2021/01/04 14:18:03;;;;;;;9.93;7.13;;;;;;;;;;5064904;28;20415;-59
2021/01/04 14:20:29;;;;;;;8.13;6.93;;;;;;;;;;5051143;28;20195;-60
2021/01/04 14:22:55;;;;;;;8.33;7.23;;;;;;;;;;5052799;28;20772;-60
2021/01/04 14:25:24;;;;;;;11.10;7.97;;;;;;;;;;5032489;28;20415;-59
2021/01/04 14:27:50;;;;;;;11.07;7.73;;;;;;;;;;5057835;28;20176;-60
2021/01/04 14:30:16;;;;;;;10.90;7.87;;;;;;;;;;5048037;28;20462;-59
2021/01/04 14:32:42;;;;;;;10.77;8.07;;;;;;;;;;5057301;28;20612;-59
2021/01/04 14:35:10;;;;;;;9.53;8.53;;;;;;;;;;5052352;28;20569;-60
2021/01/04 14:37:36;;;;;;;8.47;7.37;;;;;;;;;;5037931;28;20429;-59
2021/01/04 14:40:03;;;;;;;8.17;7.03;;;;;;;;;;5053032;28;20424;-59
2021/01/04 14:42:28;;;;;;;9.60;7.93;;;;;;;;;;5051395;28;20431;-61
2021/01/04 14:44:54;;;;;;;11.40;7.63;;;;;;;;;;5042128;28;20968;-59
2021/01/04 14:47:21;;;;;;;10.17;7.33;;;;;;;;;;5050503;28;20193;-59
2021/01/04 14:49:48;;;;;;;8.07;7.13;;;;;;;;;;5047539;28;20200;-59
2021/01/04 14:52:15;;;;;;;7.43;6.47;;;;;;;;;;5046604;28;20427;-59
2021/01/04 14:54:49;;;;;;;8.50;7.00;;;;;;;;;;5042191;28;20933;-59
2021/01/04 14:57:16;;;;;;;8.67;7.17;;;;;;;;;;5055899;28;21003;-60
2021/01/04 14:59:45;;;;;;;9.13;7.30;;;;;;;;;;5050548;28;20434;-60
2021/01/04 15:02:12;;;;;;;8.40;6.93;;;;;;;;;;5034273;28;20463;-60
2021/01/04 15:04:38;;;;;;;8.60;7.33;;;;;;;;;;5057360;28;20422;-59